Maccoa — 5BTE2 — position and weather

sailwx.info

Track history (hours):
 
Tides and Currents Weather Stations Pressure Air Temp Water Temp Dewpoint Dewpoint Depression Visibility Wind Speed Wind Dir Waves Ship Positions

Maccoa

Last reported at 2018-Jul-04 14:30 UTC. Time now 2018-Jul-23 09:52 UTC.
Position N 47°16' W 002°11'.
Warning: this ship's position is 18 days out of date.

Length 185 m; draft 7 m.

Type: Cargo ship. MMSI: 212340000.

Date/timePositionNaut miles runAvg speedWind from/ knotsBaromVisibWave heightAir tempDewpointWater temp
2018-Jul-04 14:30N 47°16' W 002°11'3 0.9
2018-Jul-04 11:27N 47°18' W 002°08'0 0.0
2018-Jul-04 10:21N 47°18' W 002°08'0 0.0
2018-Jul-04 09:15N 47°18' W 002°08'0 0.0
2018-Jul-04 08:51N 47°18' W 002°08'0 0.0
2018-Jul-04 08:27N 47°18' W 002°08'0 0.0
2018-Jul-04 08:00N 47°18' W 002°08'0 0.0
2018-Jul-04 06:45N 47°18' W 002°08'0 0.0
2018-Jul-04 05:09N 47°18' W 002°08'0 0.0
2018-Jul-04 04:57N 47°18' W 002°08'0 0.0
2018-Jul-04 04:27N 47°18' W 002°08'0 0.0
2018-Jul-04 04:00N 47°18' W 002°08'0 0.0
2018-Jul-04 03:30N 47°18' W 002°08'0 0.0
2018-Jul-04 02:57N 47°18' W 002°08'0 0.0
2018-Jul-04 02:24N 47°18' W 002°08'0 0.0
2018-Jul-04 02:00N 47°18' W 002°08'0 0.0
2018-Jul-04 01:21N 47°18' W 002°08'0 0.0
2018-Jul-04 00:27N 47°18' W 002°08'0 0.0
2018-Jul-03 23:57N 47°18' W 002°08'0 0.0
2018-Jul-03 23:27N 47°18' W 002°08'0 0.0
2018-Jul-03 22:57N 47°18' W 002°08'0 0.0
2018-Jul-03 22:06N 47°18' W 002°08'0 0.0
2018-Jul-03 21:51N 47°18' W 002°08'0 0.0
2018-Jul-03 21:30N 47°18' W 002°08'0 0.0
2018-Jul-03 20:42N 47°18' W 002°08'0 0.0
2018-Jul-03 20:18N 47°18' W 002°08'0 0.0
2018-Jul-03 20:00N 47°18' W 002°08'0 0.0
2018-Jul-03 10:30N 47°18' W 002°08'0 0.0
2018-Jul-03 10:00N 47°18' W 002°08'0 0.0
2018-Jul-03 09:30N 47°18' W 002°08'0 0.0
2018-Jul-03 09:00N 47°18' W 002°08'0 0.0
2018-Jul-03 08:30N 47°18' W 002°08'0 0.7
2018-Jul-03 08:00N 47°18' W 002°07'4 7.1
2018-Jul-03 07:30N 47°18' W 002°02'5 9.6
2018-Jul-03 07:00N 47°17' W 001°55'4 8.3
2018-Jul-03 06:31N 47°14' W 001°50'4 8.4
2018-Jul-03 06:00N 47°12' W 001°45'4 7.4
2018-Jul-03 05:30N 47°12' W 001°40'2 4.2
2018-Jul-03 04:59N 47°12' W 001°36'0 0.0
2018-Jul-03 04:29N 47°12' W 001°36'0 0.0
2018-Jul-03 03:59N 47°12' W 001°36'0 0.0
2018-Jul-03 03:29N 47°12' W 001°36'0 0.0
2018-Jul-03 02:56N 47°12' W 001°36'0 0.0
2018-Jul-03 02:29N 47°12' W 001°36'0 0.0
2018-Jul-03 01:59N 47°12' W 001°36'0 0.0
2018-Jul-03 01:20N 47°12' W 001°36'0 0.0
2018-Jul-03 00:59N 47°12' W 001°36'0 0.0
2018-Jul-03 00:26N 47°12' W 001°36'0 0.0
2018-Jul-02 23:59N 47°12' W 001°36'0 0.0
2018-Jul-02 23:29N 47°12' W 001°36'0 0.0
2018-Jul-02 22:56N 47°12' W 001°36'0 0.0
2018-Jul-02 22:29N 47°12' W 001°36'0 0.0
2018-Jul-02 21:59N 47°12' W 001°36'0 0.0
2018-Jul-02 21:29N 47°12' W 001°36'0 0.0
2018-Jul-02 20:59N 47°12' W 001°36'0 0.0
2018-Jul-02 20:29N 47°12' W 001°36'0 0.0
2018-Jul-02 19:59N 47°12' W 001°36'0 0.0
2018-Jul-02 19:29N 47°12' W 001°36'0 0.0
2018-Jul-02 18:59N 47°12' W 001°36'0 0.0
2018-Jul-02 18:29N 47°12' W 001°36'0 0.0
2018-Jul-02 17:59N 47°12' W 001°36'0 0.0
2018-Jul-02 17:29N 47°12' W 001°36'0 0.0
2018-Jul-02 16:59N 47°12' W 001°36'0 0.0
2018-Jul-02 16:29N 47°12' W 001°36'0 0.0
2018-Jul-02 15:59N 47°12' W 001°36'0 0.0
2018-Jul-02 15:29N 47°12' W 001°36'0 0.0
2018-Jul-02 14:59N 47°12' W 001°36'0 0.0
2018-Jul-02 14:29N 47°12' W 001°36'0 0.0
2018-Jul-02 13:50N 47°12' W 001°36'0 0.0
2018-Jul-02 13:17N 47°12' W 001°36'0 0.0
2018-Jul-02 12:26N 47°12' W 001°36'0 0.0
2018-Jul-02 11:59N 47°12' W 001°36'0 0.0
2018-Jul-02 11:29N 47°12' W 001°36'0 0.0
2018-Jul-02 10:20N 47°12' W 001°36'0 0.0
2018-Jul-02 09:53N 47°12' W 001°36'0 0.0
2018-Jul-02 09:23N 47°12' W 001°36'0 0.0
2018-Jul-02 09:00N 47°12' W 001°36'0 0.0
2018-Jul-02 08:29N 47°12' W 001°36'0 0.0
2018-Jul-02 07:59N 47°12' W 001°36'0 0.0
2018-Jul-02 07:29N 47°12' W 001°36'0 0.0
2018-Jul-02 06:56N 47°12' W 001°36'0 0.0
2018-Jul-02 06:23N 47°12' W 001°36'0 0.0
2018-Jul-02 05:59N 47°12' W 001°36'0 0.0
2018-Jul-02 05:26N 47°12' W 001°36'0 0.0
2018-Jul-02 04:59N 47°12' W 001°36'0 0.0
2018-Jul-02 04:29N 47°12' W 001°36'0 0.0
2018-Jul-02 03:56N 47°12' W 001°36'0 0.0
2018-Jul-02 03:29N 47°12' W 001°36'0 0.0
2018-Jul-02 02:59N 47°12' W 001°36'0 0.0
2018-Jul-02 02:29N 47°12' W 001°36'0 0.0
2018-Jul-02 01:56N 47°12' W 001°36'0 0.0
2018-Jul-02 01:29N 47°12' W 001°36'0 0.0
2018-Jul-02 00:59N 47°12' W 001°36'0 0.0
2018-Jul-02 00:29N 47°12' W 001°36'0 0.0
2018-Jul-01 23:59N 47°12' W 001°36'0 0.0
2018-Jul-01 23:29N 47°12' W 001°36'0 0.0
2018-Jul-01 22:53N 47°12' W 001°36'0 0.0
2018-Jul-01 22:29N 47°12' W 001°36'0 0.0
2018-Jul-01 21:56N 47°12' W 001°36'0 0.0
2018-Jul-01 21:29N 47°12' W 001°36'0 0.0
2018-Jul-01 20:59N 47°12' W 001°36'0 0.0
2018-Jul-01 20:26N 47°12' W 001°36'0 0.0
2018-Jul-01 19:56N 47°12' W 001°36'0 0.0
2018-Jul-01 19:26N 47°12' W 001°36'0 0.0
2018-Jul-01 18:59N 47°12' W 001°36'0 0.0
2018-Jul-01 18:29N 47°12' W 001°36'0 0.0
2018-Jul-01 17:59N 47°12' W 001°36'0 0.0
2018-Jul-01 17:29N 47°12' W 001°36'0 0.0
2018-Jul-01 16:59N 47°12' W 001°36'0 0.0
2018-Jul-01 16:26N 47°12' W 001°36'0 0.0
2018-Jul-01 15:53N 47°12' W 001°36'0 0.0
2018-Jul-01 15:26N 47°12' W 001°36'0 0.0
2018-Jul-01 14:59N 47°12' W 001°36'0 0.0
2018-Jul-01 14:20N 47°12' W 001°36'0 0.0
2018-Jul-01 13:50N 47°12' W 001°36'0 0.0
2018-Jul-01 13:29N 47°12' W 001°36'0 0.0
2018-Jul-01 12:59N 47°12' W 001°36'0 0.0
2018-Jul-01 12:29N 47°12' W 001°36'0 0.0
2018-Jul-01 11:50N 47°12' W 001°36'0 0.0
2018-Jul-01 11:29N 47°12' W 001°36'0 0.0
2018-Jul-01 10:56N 47°12' W 001°36'0 0.0
2018-Jul-01 10:29N 47°12' W 001°36'0 0.0
2018-Jul-01 09:56N 47°12' W 001°36'0 0.0
2018-Jul-01 09:29N 47°12' W 001°36'0 0.0
2018-Jul-01 08:59N 47°12' W 001°36'0 0.0
2018-Jul-01 08:26N 47°12' W 001°36'0 0.0
2018-Jul-01 07:56N 47°12' W 001°36'0 0.0
2018-Jul-01 07:23N 47°12' W 001°36'0 0.0
2018-Jul-01 06:53N 47°12' W 001°36'0 0.0
2018-Jul-01 06:23N 47°12' W 001°36'0 0.0
2018-Jul-01 05:59N 47°12' W 001°36'0 0.0
2018-Jul-01 05:26N 47°12' W 001°36'0 0.0
2018-Jul-01 04:59N 47°12' W 001°36'0 0.0
2018-Jul-01 04:29N 47°12' W 001°36'0 0.0
2018-Jul-01 03:50N 47°12' W 001°36'0 0.0
2018-Jul-01 03:29N 47°12' W 001°36'0 0.0
2018-Jul-01 02:50N 47°12' W 001°36'0 0.0
2018-Jul-01 02:26N 47°12' W 001°36'0 0.0
2018-Jul-01 01:59N 47°12' W 001°36'0 0.0
2018-Jul-01 01:29N 47°12' W 001°36'0 0.0
2018-Jul-01 00:56N 47°12' W 001°36'0 0.0
2018-Jul-01 00:26N 47°12' W 001°36'0 0.0
2018-Jun-30 23:59N 47°12' W 001°36'0 0.0
2018-Jun-30 23:26N 47°12' W 001°36'0 0.0
2018-Jun-30 22:59N 47°12' W 001°36'0 0.0
2018-Jun-30 22:29N 47°12' W 001°36'0 0.0
2018-Jun-30 21:47N 47°12' W 001°36'0 0.0
2018-Jun-30 21:26N 47°12' W 001°36'0 0.0
2018-Jun-30 20:59N 47°12' W 001°36'0 0.0
2018-Jun-30 20:29N 47°12' W 001°36'0 0.0
2018-Jun-30 19:59N 47°12' W 001°36'0 0.0
2018-Jun-30 19:29N 47°12' W 001°36'0 0.0
2018-Jun-30 18:59N 47°12' W 001°36'0 0.0
2018-Jun-30 18:29N 47°12' W 001°36'0 0.0
2018-Jun-30 17:59N 47°12' W 001°36'0 0.0
2018-Jun-30 17:29N 47°12' W 001°36'0 0.0
2018-Jun-30 16:59N 47°12' W 001°36'0 0.0
2018-Jun-30 16:26N 47°12' W 001°36'0 0.0
2018-Jun-30 15:53N 47°12' W 001°36'0 0.0
2018-Jun-30 15:29N 47°12' W 001°36'0 0.0
2018-Jun-30 14:59N 47°12' W 001°36'0 0.0
2018-Jun-30 14:29N 47°12' W 001°36'0 0.0
2018-Jun-30 13:59N 47°12' W 001°36'0 0.0
2018-Jun-30 13:29N 47°12' W 001°36'0 0.0
2018-Jun-30 12:59N 47°12' W 001°36'0 0.0
2018-Jun-30 12:26N 47°12' W 001°36'0 0.0
2018-Jun-30 11:56N 47°12' W 001°36'0 0.0
2018-Jun-30 11:29N 47°12' W 001°36'0 0.0
2018-Jun-30 10:59N 47°12' W 001°36'0 0.0
2018-Jun-30 10:29N 47°12' W 001°36'0 0.0
2018-Jun-30 09:53N 47°12' W 001°36'0 0.0
2018-Jun-30 09:26N 47°12' W 001°36'0 0.0
2018-Jun-30 08:59N 47°12' W 001°36'0 0.0
2018-Jun-30 08:29N 47°12' W 001°36'0 0.0
2018-Jun-30 07:59N 47°12' W 001°36'0 0.0
2018-Jun-30 07:29N 47°12' W 001°36'0 0.0
2018-Jun-30 06:59N 47°12' W 001°36'0 0.0
2018-Jun-30 06:29N 47°12' W 001°36'0 0.0
2018-Jun-30 05:59N 47°12' W 001°36'0 0.0
2018-Jun-30 05:29N 47°12' W 001°36'0 0.0
2018-Jun-30 04:59N 47°12' W 001°36'0 0.0
2018-Jun-30 04:26N 47°12' W 001°36'0 0.0
2018-Jun-30 03:59N 47°12' W 001°36'0 0.0
2018-Jun-30 03:26N 47°12' W 001°36'0 0.0
2018-Jun-30 02:59N 47°12' W 001°36'0 0.0
2018-Jun-30 02:29N 47°12' W 001°36'0 0.0
2018-Jun-30 01:59N 47°12' W 001°36'0 0.0
2018-Jun-30 01:23N 47°12' W 001°36'0 0.0
2018-Jun-30 00:59N 47°12' W 001°36'0 0.0
2018-Jun-30 00:29N 47°12' W 001°36'0 0.0
2018-Jun-29 23:59N 47°12' W 001°36'0 0.0
2018-Jun-29 23:29N 47°12' W 001°36'0 0.0
2018-Jun-29 22:59N 47°12' W 001°36'0 0.0
2018-Jun-29 22:29N 47°12' W 001°36'0 0.0
2018-Jun-29 21:59N 47°12' W 001°36'0 0.0
2018-Jun-29 21:26N 47°12' W 001°36'0 0.0
2018-Jun-29 20:59N 47°12' W 001°36'0 0.0
2018-Jun-29 20:23N 47°12' W 001°36'0 0.0
2018-Jun-29 19:59N 47°12' W 001°36'0 0.0
2018-Jun-29 19:29N 47°12' W 001°36'0 0.0
2018-Jun-29 18:59N 47°12' W 001°36'0 0.0
2018-Jun-29 18:29N 47°12' W 001°36'0 0.0
2018-Jun-29 17:59N 47°12' W 001°36'0 0.0
2018-Jun-29 17:23N 47°12' W 001°36'0 0.0
2018-Jun-29 16:59N 47°12' W 001°36'0 0.0
2018-Jun-29 16:23N 47°12' W 001°36'0 0.0
2018-Jun-29 15:59N 47°12' W 001°36'0 0.0
2018-Jun-29 15:29N 47°12' W 001°36'0 0.0
2018-Jun-29 14:59N 47°12' W 001°36'0 0.0
2018-Jun-29 14:29N 47°12' W 001°36'0 0.0
2018-Jun-29 13:53N 47°12' W 001°36'0 0.0
2018-Jun-29 13:29N 47°12' W 001°36'0 0.0
2018-Jun-29 12:59N 47°12' W 001°36'0 0.0
2018-Jun-29 12:29N 47°12' W 001°36'0 0.0
2018-Jun-29 11:44N 47°12' W 001°36'0 0.0
2018-Jun-29 11:29N 47°12' W 001°36'0 0.0
2018-Jun-29 10:50N 47°12' W 001°36'0 0.0
2018-Jun-29 10:26N 47°12' W 001°36'0 0.0
2018-Jun-29 07:57N 47°12' W 001°36'0 0.0
2018-Jun-29 07:21N 47°12' W 001°36'0 0.0
2018-Jun-29 07:00N 47°12' W 001°36'0 0.0
2018-Jun-29 06:30N 47°12' W 001°36'0 0.0
2018-Jun-29 06:00N 47°12' W 001°36'0 0.0
2018-Jun-29 05:30N 47°12' W 001°36'0 0.0
2018-Jun-29 05:00N 47°12' W 001°36'0 0.0
2018-Jun-29 04:30N 47°12' W 001°36'0 0.0
2018-Jun-29 04:00N 47°12' W 001°36'0 0.0
2018-Jun-29 03:30N 47°12' W 001°36'0 0.0
2018-Jun-29 03:00N 47°12' W 001°36'0 0.0
2018-Jun-29 02:30N 47°12' W 001°36'0 0.0
2018-Jun-29 01:57N 47°12' W 001°36'0 0.0
2018-Jun-29 01:27N 47°12' W 001°36'0 0.0
2018-Jun-29 01:00N 47°12' W 001°36'0 0.0
2018-Jun-29 00:30N 47°12' W 001°36'0 0.0
2018-Jun-28 23:57N 47°12' W 001°36'0 0.0
2018-Jun-28 23:30N 47°12' W 001°36'0 0.0
2018-Jun-28 23:00N 47°12' W 001°36'0 0.0
2018-Jun-28 22:30N 47°12' W 001°36'0 0.0
2018-Jun-28 21:57N 47°12' W 001°36'0 0.0
2018-Jun-28 21:30N 47°12' W 001°36'0 0.0
2018-Jun-28 21:00N 47°12' W 001°36'0 0.0
2018-Jun-28 20:27N 47°12' W 001°36'0 0.0
2018-Jun-28 20:00N 47°12' W 001°36'0 0.0
2018-Jun-28 19:21N 47°12' W 001°36'0 0.0
2018-Jun-28 19:00N 47°12' W 001°36'0 0.0
2018-Jun-28 18:30N 47°12' W 001°36'0 0.0
2018-Jun-28 18:00N 47°12' W 001°36'0 0.0
2018-Jun-28 17:30N 47°12' W 001°36'0 0.0
2018-Jun-28 17:00N 47°12' W 001°36'0 0.0
2018-Jun-28 16:30N 47°12' W 001°36'0 0.0
2018-Jun-28 16:00N 47°12' W 001°36'0 0.0
2018-Jun-28 15:27N 47°12' W 001°36'0 0.0
2018-Jun-28 15:00N 47°12' W 001°36'0 0.0
2018-Jun-28 14:18N 47°12' W 001°36'0 0.0
2018-Jun-28 13:57N 47°12' W 001°36'0 0.0
2018-Jun-28 13:27N 47°12' W 001°36'0 0.0
2018-Jun-28 13:00N 47°12' W 001°36'0 0.0
2018-Jun-28 11:48N 47°12' W 001°36'0 0.0
2018-Jun-28 11:30N 47°12' W 001°36'0 0.0
2018-Jun-28 10:03N 47°12' W 001°36'0 0.1
2018-Jun-28 09:57N 47°12' W 001°36'0 0.0
2018-Jun-28 09:03N 47°12' W 001°36'0 0.1
2018-Jun-28 08:57N 47°12' W 001°36'0 0.0
2018-Jun-28 08:30N 47°12' W 001°36'0 0.0
2018-Jun-28 08:00N 47°12' W 001°36'0 0.0
2018-Jun-28 07:30N 47°12' W 001°36'0 0.0
2018-Jun-28 07:00N 47°12' W 001°36'0 0.0
2018-Jun-28 06:30N 47°12' W 001°36'0 0.0
2018-Jun-28 05:54N 47°12' W 001°36'0 0.0
2018-Jun-28 05:27N 47°12' W 001°36'0 0.0
2018-Jun-28 05:00N 47°12' W 001°36'0 0.0
2018-Jun-28 04:27N 47°12' W 001°36'0 0.0
2018-Jun-28 04:00N 47°12' W 001°36'0 0.0
2018-Jun-28 03:27N 47°12' W 001°36'0 0.0
2018-Jun-28 03:00N 47°12' W 001°36'0 0.0
2018-Jun-28 02:24N 47°12' W 001°36'0 0.0
2018-Jun-28 01:57N 47°12' W 001°36'0 0.0
2018-Jun-28 01:30N 47°12' W 001°36'0 0.0
2018-Jun-28 01:00N 47°12' W 001°36'0 0.0
2018-Jun-28 00:30N 47°12' W 001°36'0 0.0
2018-Jun-27 23:57N 47°12' W 001°36'0 0.0
2018-Jun-27 23:30N 47°12' W 001°36'0 0.0
2018-Jun-27 23:00N 47°12' W 001°36'0 0.0
2018-Jun-27 22:30N 47°12' W 001°36'0 0.0
2018-Jun-27 22:00N 47°12' W 001°36'0 0.0
2018-Jun-27 21:30N 47°12' W 001°36'0 0.0
2018-Jun-27 21:00N 47°12' W 001°36'0 0.0
2018-Jun-27 20:30N 47°12' W 001°36'0 0.0
2018-Jun-27 20:00N 47°12' W 001°36'0 0.0
2018-Jun-27 19:30N 47°12' W 001°36'0 0.0
2018-Jun-27 19:00N 47°12' W 001°36'0 0.0
2018-Jun-27 18:27N 47°12' W 001°36'0 0.0
2018-Jun-27 17:57N 47°12' W 001°36'0 0.0
2018-Jun-27 17:30N 47°12' W 001°36'0 0.0
2018-Jun-27 17:00N 47°12' W 001°36'0 0.0
2018-Jun-27 16:30N 47°12' W 001°36'0 0.0
2018-Jun-27 16:00N 47°12' W 001°36'0 0.0
2018-Jun-27 15:27N 47°12' W 001°36'0 0.0
2018-Jun-27 15:00N 47°12' W 001°36'0 0.0
2018-Jun-27 14:30N 47°12' W 001°36'0 0.0
2018-Jun-27 14:00N 47°12' W 001°36'0 0.0
2018-Jun-27 13:30N 47°12' W 001°36'0 0.0
2018-Jun-27 13:00N 47°12' W 001°36'0 0.0
2018-Jun-27 12:30N 47°12' W 001°36'0 0.0
2018-Jun-27 09:03N 47°12' W 001°36'0 0.0
2018-Jun-27 08:48N 47°12' W 001°36'0 0.0
2018-Jun-27 08:30N 47°12' W 001°36'0 0.0
2018-Jun-27 08:00N 47°12' W 001°36'0 0.0
2018-Jun-27 07:30N 47°12' W 001°36'0 0.0
2018-Jun-27 07:00N 47°12' W 001°36'0 0.0
2018-Jun-27 06:30N 47°12' W 001°36'0 0.0
2018-Jun-27 06:00N 47°12' W 001°36'0 0.0
2018-Jun-27 05:30N 47°12' W 001°36'0 0.0
2018-Jun-27 04:57N 47°12' W 001°36'0 0.0
2018-Jun-27 04:30N 47°12' W 001°36'0 0.0
2018-Jun-27 04:00N 47°12' W 001°36'0 0.0
2018-Jun-27 03:30N 47°12' W 001°36'0 0.0
2018-Jun-27 03:00N 47°12' W 001°36'0 0.0
2018-Jun-27 02:30N 47°12' W 001°36'0 0.0
2018-Jun-27 01:57N 47°12' W 001°36'0 0.0
2018-Jun-27 01:30N 47°12' W 001°36'0 0.0
2018-Jun-27 00:57N 47°12' W 001°36'0 0.0
2018-Jun-27 00:30N 47°12' W 001°36'0 0.0
2018-Jun-27 00:00N 47°12' W 001°36'0 0.0
2018-Jun-26 23:27N 47°12' W 001°36'0 0.0
2018-Jun-26 23:00N 47°12' W 001°36'0 0.0
2018-Jun-26 22:30N 47°12' W 001°36'0 0.0
2018-Jun-26 22:00N 47°12' W 001°36'0 0.0
2018-Jun-26 21:30N 47°12' W 001°36'0 0.0
2018-Jun-26 21:00N 47°12' W 001°36'0 0.0
2018-Jun-26 20:27N 47°12' W 001°36'0 0.0
2018-Jun-26 19:57N 47°12' W 001°36'0 0.0
2018-Jun-26 19:24N 47°12' W 001°36'0 0.0
2018-Jun-26 19:00N 47°12' W 001°36'0 0.0
2018-Jun-26 18:27N 47°12' W 001°36'0 0.0
2018-Jun-26 17:57N 47°12' W 001°36'0 0.0
2018-Jun-26 17:30N 47°12' W 001°36'0 0.0
2018-Jun-26 16:30N 47°12' W 001°36'0 0.0
2018-Jun-26 16:00N 47°12' W 001°36'0 0.0
2018-Jun-26 15:30N 47°12' W 001°36'0 0.0
2018-Jun-26 15:01N 47°12' W 001°36'1 2.3
2018-Jun-26 14:30N 47°12' W 001°35'2 4.9
2018-Jun-26 14:00N 47°12' W 001°38'611.6
2018-Jun-26 13:30N 47°13' W 001°47'611.4
2018-Jun-26 13:01N 47°16' W 001°53'611.7
2018-Jun-26 12:30N 47°18' W 002°01'20 0.7
2018-Jun-25 06:29N 47°08' W 002°27'0 0.0
2018-Jun-25 05:47N 47°08' W 002°27'0 0.0
2018-Jun-25 05:11N 47°08' W 002°27'0 0.0
2018-Jun-25 04:26N 47°08' W 002°27'0 0.0
2018-Jun-25 03:47N 47°08' W 002°27'0 0.0
2018-Jun-25 03:29N 47°08' W 002°27'0 0.1
2018-Jun-25 02:59N 47°08' W 002°26'0 0.0
2018-Jun-25 02:29N 47°08' W 002°26'  
Track history (hours):
 
Tides and Currents Weather Stations Pressure Air Temp Water Temp Dewpoint Dewpoint Depression Visibility Wind Speed Wind Dir Waves Ship Positions

Maccoa

Last reported at 2018-Jul-04 14:30 UTC. Time now 2018-Jul-23 09:52 UTC.
Position N 47°16' W 002°11'.
Warning: this ship's position is 18 days out of date.

Length 185 m; draft 7 m.

Type: Cargo ship. MMSI: 212340000.

Date/timePositionNaut miles runAvg speedWind from/ knotsBaromVisibWave heightAir tempDewpointWater temp
2018-Jul-04 14:30N 47°16' W 002°11'3 0.9
2018-Jul-04 11:27N 47°18' W 002°08'0 0.0
2018-Jul-04 10:21N 47°18' W 002°08'0 0.0
2018-Jul-04 09:15N 47°18' W 002°08'0 0.0
2018-Jul-04 08:51N 47°18' W 002°08'0 0.0
2018-Jul-04 08:27N 47°18' W 002°08'0 0.0
2018-Jul-04 08:00N 47°18' W 002°08'0 0.0
2018-Jul-04 06:45N 47°18' W 002°08'0 0.0
2018-Jul-04 05:09N 47°18' W 002°08'0 0.0
2018-Jul-04 04:57N 47°18' W 002°08'0 0.0
2018-Jul-04 04:27N 47°18' W 002°08'0 0.0
2018-Jul-04 04:00N 47°18' W 002°08'0 0.0
2018-Jul-04 03:30N 47°18' W 002°08'0 0.0
2018-Jul-04 02:57N 47°18' W 002°08'0 0.0
2018-Jul-04 02:24N 47°18' W 002°08'0 0.0
2018-Jul-04 02:00N 47°18' W 002°08'0 0.0
2018-Jul-04 01:21N 47°18' W 002°08'0 0.0
2018-Jul-04 00:27N 47°18' W 002°08'0 0.0
2018-Jul-03 23:57N 47°18' W 002°08'0 0.0
2018-Jul-03 23:27N 47°18' W 002°08'0 0.0
2018-Jul-03 22:57N 47°18' W 002°08'0 0.0
2018-Jul-03 22:06N 47°18' W 002°08'0 0.0
2018-Jul-03 21:51N 47°18' W 002°08'0 0.0
2018-Jul-03 21:30N 47°18' W 002°08'0 0.0
2018-Jul-03 20:42N 47°18' W 002°08'0 0.0
2018-Jul-03 20:18N 47°18' W 002°08'0 0.0
2018-Jul-03 20:00N 47°18' W 002°08'0 0.0
2018-Jul-03 10:30N 47°18' W 002°08'0 0.0
2018-Jul-03 10:00N 47°18' W 002°08'0 0.0
2018-Jul-03 09:30N 47°18' W 002°08'0 0.0
2018-Jul-03 09:00N 47°18' W 002°08'0 0.0
2018-Jul-03 08:30N 47°18' W 002°08'0 0.7
2018-Jul-03 08:00N 47°18' W 002°07'4 7.1
2018-Jul-03 07:30N 47°18' W 002°02'5 9.6
2018-Jul-03 07:00N 47°17' W 001°55'4 8.3
2018-Jul-03 06:31N 47°14' W 001°50'4 8.4
2018-Jul-03 06:00N 47°12' W 001°45'4 7.4
2018-Jul-03 05:30N 47°12' W 001°40'2 4.2
2018-Jul-03 04:59N 47°12' W 001°36'0 0.0
2018-Jul-03 04:29N 47°12' W 001°36'0 0.0
2018-Jul-03 03:59N 47°12' W 001°36'0 0.0
2018-Jul-03 03:29N 47°12' W 001°36'0 0.0
2018-Jul-03 02:56N 47°12' W 001°36'0 0.0
2018-Jul-03 02:29N 47°12' W 001°36'0 0.0
2018-Jul-03 01:59N 47°12' W 001°36'0 0.0
2018-Jul-03 01:20N 47°12' W 001°36'0 0.0
2018-Jul-03 00:59N 47°12' W 001°36'0 0.0
2018-Jul-03 00:26N 47°12' W 001°36'0 0.0
2018-Jul-02 23:59N 47°12' W 001°36'0 0.0
2018-Jul-02 23:29N 47°12' W 001°36'0 0.0
2018-Jul-02 22:56N 47°12' W 001°36'0 0.0
2018-Jul-02 22:29N 47°12' W 001°36'0 0.0
2018-Jul-02 21:59N 47°12' W 001°36'0 0.0
2018-Jul-02 21:29N 47°12' W 001°36'0 0.0
2018-Jul-02 20:59N 47°12' W 001°36'0 0.0
2018-Jul-02 20:29N 47°12' W 001°36'0 0.0
2018-Jul-02 19:59N 47°12' W 001°36'0 0.0
2018-Jul-02 19:29N 47°12' W 001°36'0 0.0
2018-Jul-02 18:59N 47°12' W 001°36'0 0.0
2018-Jul-02 18:29N 47°12' W 001°36'0 0.0
2018-Jul-02 17:59N 47°12' W 001°36'0 0.0
2018-Jul-02 17:29N 47°12' W 001°36'0 0.0
2018-Jul-02 16:59N 47°12' W 001°36'0 0.0
2018-Jul-02 16:29N 47°12' W 001°36'0 0.0
2018-Jul-02 15:59N 47°12' W 001°36'0 0.0
2018-Jul-02 15:29N 47°12' W 001°36'0 0.0
2018-Jul-02 14:59N 47°12' W 001°36'0 0.0
2018-Jul-02 14:29N 47°12' W 001°36'0 0.0
2018-Jul-02 13:50N 47°12' W 001°36'0 0.0
2018-Jul-02 13:17N 47°12' W 001°36'0 0.0
2018-Jul-02 12:26N 47°12' W 001°36'0 0.0
2018-Jul-02 11:59N 47°12' W 001°36'0 0.0
2018-Jul-02 11:29N 47°12' W 001°36'0 0.0
2018-Jul-02 10:20N 47°12' W 001°36'0 0.0
2018-Jul-02 09:53N 47°12' W 001°36'0 0.0
2018-Jul-02 09:23N 47°12' W 001°36'0 0.0
2018-Jul-02 09:00N 47°12' W 001°36'0 0.0
2018-Jul-02 08:29N 47°12' W 001°36'0 0.0
2018-Jul-02 07:59N 47°12' W 001°36'0 0.0
2018-Jul-02 07:29N 47°12' W 001°36'0 0.0
2018-Jul-02 06:56N 47°12' W 001°36'0 0.0
2018-Jul-02 06:23N 47°12' W 001°36'0 0.0
2018-Jul-02 05:59N 47°12' W 001°36'0 0.0
2018-Jul-02 05:26N 47°12' W 001°36'0 0.0
2018-Jul-02 04:59N 47°12' W 001°36'0 0.0
2018-Jul-02 04:29N 47°12' W 001°36'0 0.0
2018-Jul-02 03:56N 47°12' W 001°36'0 0.0
2018-Jul-02 03:29N 47°12' W 001°36'0 0.0
2018-Jul-02 02:59N 47°12' W 001°36'0 0.0
2018-Jul-02 02:29N 47°12' W 001°36'0 0.0
2018-Jul-02 01:56N 47°12' W 001°36'0 0.0
2018-Jul-02 01:29N 47°12' W 001°36'0 0.0
2018-Jul-02 00:59N 47°12' W 001°36'0 0.0
2018-Jul-02 00:29N 47°12' W 001°36'0 0.0
2018-Jul-01 23:59N 47°12' W 001°36'0 0.0
2018-Jul-01 23:29N 47°12' W 001°36'0 0.0
2018-Jul-01 22:53N 47°12' W 001°36'0 0.0
2018-Jul-01 22:29N 47°12' W 001°36'0 0.0
2018-Jul-01 21:56N 47°12' W 001°36'0 0.0
2018-Jul-01 21:29N 47°12' W 001°36'0 0.0
2018-Jul-01 20:59N 47°12' W 001°36'0 0.0
2018-Jul-01 20:26N 47°12' W 001°36'0 0.0
2018-Jul-01 19:56N 47°12' W 001°36'0 0.0
2018-Jul-01 19:26N 47°12' W 001°36'0 0.0
2018-Jul-01 18:59N 47°12' W 001°36'0 0.0
2018-Jul-01 18:29N 47°12' W 001°36'0 0.0
2018-Jul-01 17:59N 47°12' W 001°36'0 0.0
2018-Jul-01 17:29N 47°12' W 001°36'0 0.0
2018-Jul-01 16:59N 47°12' W 001°36'0 0.0
2018-Jul-01 16:26N 47°12' W 001°36'0 0.0
2018-Jul-01 15:53N 47°12' W 001°36'0 0.0
2018-Jul-01 15:26N 47°12' W 001°36'0 0.0
2018-Jul-01 14:59N 47°12' W 001°36'0 0.0
2018-Jul-01 14:20N 47°12' W 001°36'0 0.0
2018-Jul-01 13:50N 47°12' W 001°36'0 0.0
2018-Jul-01 13:29N 47°12' W 001°36'0 0.0
2018-Jul-01 12:59N 47°12' W 001°36'0 0.0
2018-Jul-01 12:29N 47°12' W 001°36'0 0.0
2018-Jul-01 11:50N 47°12' W 001°36'0 0.0
2018-Jul-01 11:29N 47°12' W 001°36'0 0.0
2018-Jul-01 10:56N 47°12' W 001°36'0 0.0
2018-Jul-01 10:29N 47°12' W 001°36'0 0.0
2018-Jul-01 09:56N 47°12' W 001°36'0 0.0
2018-Jul-01 09:29N 47°12' W 001°36'0 0.0
2018-Jul-01 08:59N 47°12' W 001°36'0 0.0
2018-Jul-01 08:26N 47°12' W 001°36'0 0.0
2018-Jul-01 07:56N 47°12' W 001°36'0 0.0
2018-Jul-01 07:23N 47°12' W 001°36'0 0.0
2018-Jul-01 06:53N 47°12' W 001°36'0 0.0
2018-Jul-01 06:23N 47°12' W 001°36'0 0.0
2018-Jul-01 05:59N 47°12' W 001°36'0 0.0
2018-Jul-01 05:26N 47°12' W 001°36'0 0.0
2018-Jul-01 04:59N 47°12' W 001°36'0 0.0
2018-Jul-01 04:29N 47°12' W 001°36'0 0.0
2018-Jul-01 03:50N 47°12' W 001°36'0 0.0
2018-Jul-01 03:29N 47°12' W 001°36'0 0.0
2018-Jul-01 02:50N 47°12' W 001°36'0 0.0
2018-Jul-01 02:26N 47°12' W 001°36'0 0.0
2018-Jul-01 01:59N 47°12' W 001°36'0 0.0
2018-Jul-01 01:29N 47°12' W 001°36'0 0.0
2018-Jul-01 00:56N 47°12' W 001°36'0 0.0
2018-Jul-01 00:26N 47°12' W 001°36'0 0.0
2018-Jun-30 23:59N 47°12' W 001°36'0 0.0
2018-Jun-30 23:26N 47°12' W 001°36'0 0.0
2018-Jun-30 22:59N 47°12' W 001°36'0 0.0
2018-Jun-30 22:29N 47°12' W 001°36'0 0.0
2018-Jun-30 21:47N 47°12' W 001°36'0 0.0
2018-Jun-30 21:26N 47°12' W 001°36'0 0.0
2018-Jun-30 20:59N 47°12' W 001°36'0 0.0
2018-Jun-30 20:29N 47°12' W 001°36'0 0.0
2018-Jun-30 19:59N 47°12' W 001°36'0 0.0
2018-Jun-30 19:29N 47°12' W 001°36'0 0.0
2018-Jun-30 18:59N 47°12' W 001°36'0 0.0
2018-Jun-30 18:29N 47°12' W 001°36'0 0.0
2018-Jun-30 17:59N 47°12' W 001°36'0 0.0
2018-Jun-30 17:29N 47°12' W 001°36'0 0.0
2018-Jun-30 16:59N 47°12' W 001°36'0 0.0
2018-Jun-30 16:26N 47°12' W 001°36'0 0.0
2018-Jun-30 15:53N 47°12' W 001°36'0 0.0
2018-Jun-30 15:29N 47°12' W 001°36'0 0.0
2018-Jun-30 14:59N 47°12' W 001°36'0 0.0
2018-Jun-30 14:29N 47°12' W 001°36'0 0.0
2018-Jun-30 13:59N 47°12' W 001°36'0 0.0
2018-Jun-30 13:29N 47°12' W 001°36'0 0.0
2018-Jun-30 12:59N 47°12' W 001°36'0 0.0
2018-Jun-30 12:26N 47°12' W 001°36'0 0.0
2018-Jun-30 11:56N 47°12' W 001°36'0 0.0
2018-Jun-30 11:29N 47°12' W 001°36'0 0.0
2018-Jun-30 10:59N 47°12' W 001°36'0 0.0
2018-Jun-30 10:29N 47°12' W 001°36'0 0.0
2018-Jun-30 09:53N 47°12' W 001°36'0 0.0
2018-Jun-30 09:26N 47°12' W 001°36'0 0.0
2018-Jun-30 08:59N 47°12' W 001°36'0 0.0
2018-Jun-30 08:29N 47°12' W 001°36'0 0.0
2018-Jun-30 07:59N 47°12' W 001°36'0 0.0
2018-Jun-30 07:29N 47°12' W 001°36'0 0.0
2018-Jun-30 06:59N 47°12' W 001°36'0 0.0
2018-Jun-30 06:29N 47°12' W 001°36'0 0.0
2018-Jun-30 05:59N 47°12' W 001°36'0 0.0
2018-Jun-30 05:29N 47°12' W 001°36'0 0.0
2018-Jun-30 04:59N 47°12' W 001°36'0 0.0
2018-Jun-30 04:26N 47°12' W 001°36'0 0.0
2018-Jun-30 03:59N 47°12' W 001°36'0 0.0
2018-Jun-30 03:26N 47°12' W 001°36'0 0.0
2018-Jun-30 02:59N 47°12' W 001°36'0 0.0
2018-Jun-30 02:29N 47°12' W 001°36'0 0.0
2018-Jun-30 01:59N 47°12' W 001°36'0 0.0
2018-Jun-30 01:23N 47°12' W 001°36'0 0.0
2018-Jun-30 00:59N 47°12' W 001°36'0 0.0
2018-Jun-30 00:29N 47°12' W 001°36'0 0.0
2018-Jun-29 23:59N 47°12' W 001°36'0 0.0
2018-Jun-29 23:29N 47°12' W 001°36'0 0.0
2018-Jun-29 22:59N 47°12' W 001°36'0 0.0
2018-Jun-29 22:29N 47°12' W 001°36'0 0.0
2018-Jun-29 21:59N 47°12' W 001°36'0 0.0
2018-Jun-29 21:26N 47°12' W 001°36'0 0.0
2018-Jun-29 20:59N 47°12' W 001°36'0 0.0
2018-Jun-29 20:23N 47°12' W 001°36'0 0.0
2018-Jun-29 19:59N 47°12' W 001°36'0 0.0
2018-Jun-29 19:29N 47°12' W 001°36'0 0.0
2018-Jun-29 18:59N 47°12' W 001°36'0 0.0
2018-Jun-29 18:29N 47°12' W 001°36'0 0.0
2018-Jun-29 17:59N 47°12' W 001°36'0 0.0
2018-Jun-29 17:23N 47°12' W 001°36'0 0.0
2018-Jun-29 16:59N 47°12' W 001°36'0 0.0
2018-Jun-29 16:23N 47°12' W 001°36'0 0.0
2018-Jun-29 15:59N 47°12' W 001°36'0 0.0
2018-Jun-29 15:29N 47°12' W 001°36'0 0.0
2018-Jun-29 14:59N 47°12' W 001°36'0 0.0
2018-Jun-29 14:29N 47°12' W 001°36'0 0.0
2018-Jun-29 13:53N 47°12' W 001°36'0 0.0
2018-Jun-29 13:29N 47°12' W 001°36'0 0.0
2018-Jun-29 12:59N 47°12' W 001°36'0 0.0
2018-Jun-29 12:29N 47°12' W 001°36'0 0.0
2018-Jun-29 11:44N 47°12' W 001°36'0 0.0
2018-Jun-29 11:29N 47°12' W 001°36'0 0.0
2018-Jun-29 10:50N 47°12' W 001°36'0 0.0
2018-Jun-29 10:26N 47°12' W 001°36'0 0.0
2018-Jun-29 07:57N 47°12' W 001°36'0 0.0
2018-Jun-29 07:21N 47°12' W 001°36'0 0.0
2018-Jun-29 07:00N 47°12' W 001°36'0 0.0
2018-Jun-29 06:30N 47°12' W 001°36'0 0.0
2018-Jun-29 06:00N 47°12' W 001°36'0 0.0
2018-Jun-29 05:30N 47°12' W 001°36'0 0.0
2018-Jun-29 05:00N 47°12' W 001°36'0 0.0
2018-Jun-29 04:30N 47°12' W 001°36'0 0.0
2018-Jun-29 04:00N 47°12' W 001°36'0 0.0
2018-Jun-29 03:30N 47°12' W 001°36'0 0.0
2018-Jun-29 03:00N 47°12' W 001°36'0 0.0
2018-Jun-29 02:30N 47°12' W 001°36'0 0.0
2018-Jun-29 01:57N 47°12' W 001°36'0 0.0
2018-Jun-29 01:27N 47°12' W 001°36'0 0.0
2018-Jun-29 01:00N 47°12' W 001°36'0 0.0
2018-Jun-29 00:30N 47°12' W 001°36'0 0.0
2018-Jun-28 23:57N 47°12' W 001°36'0 0.0
2018-Jun-28 23:30N 47°12' W 001°36'0 0.0
2018-Jun-28 23:00N 47°12' W 001°36'0 0.0
2018-Jun-28 22:30N 47°12' W 001°36'0 0.0
2018-Jun-28 21:57N 47°12' W 001°36'0 0.0
2018-Jun-28 21:30N 47°12' W 001°36'0 0.0
2018-Jun-28 21:00N 47°12' W 001°36'0 0.0
2018-Jun-28 20:27N 47°12' W 001°36'0 0.0
2018-Jun-28 20:00N 47°12' W 001°36'0 0.0
2018-Jun-28 19:21N 47°12' W 001°36'0 0.0
2018-Jun-28 19:00N 47°12' W 001°36'0 0.0
2018-Jun-28 18:30N 47°12' W 001°36'0 0.0
2018-Jun-28 18:00N 47°12' W 001°36'0 0.0
2018-Jun-28 17:30N 47°12' W 001°36'0 0.0
2018-Jun-28 17:00N 47°12' W 001°36'0 0.0
2018-Jun-28 16:30N 47°12' W 001°36'0 0.0
2018-Jun-28 16:00N 47°12' W 001°36'0 0.0
2018-Jun-28 15:27N 47°12' W 001°36'0 0.0
2018-Jun-28 15:00N 47°12' W 001°36'0 0.0
2018-Jun-28 14:18N 47°12' W 001°36'0 0.0
2018-Jun-28 13:57N 47°12' W 001°36'0 0.0
2018-Jun-28 13:27N 47°12' W 001°36'0 0.0
2018-Jun-28 13:00N 47°12' W 001°36'0 0.0
2018-Jun-28 11:48N 47°12' W 001°36'0 0.0
2018-Jun-28 11:30N 47°12' W 001°36'0 0.0
2018-Jun-28 10:03N 47°12' W 001°36'0 0.1
2018-Jun-28 09:57N 47°12' W 001°36'0 0.0
2018-Jun-28 09:03N 47°12' W 001°36'0 0.1
2018-Jun-28 08:57N 47°12' W 001°36'0 0.0
2018-Jun-28 08:30N 47°12' W 001°36'0 0.0
2018-Jun-28 08:00N 47°12' W 001°36'0 0.0
2018-Jun-28 07:30N 47°12' W 001°36'0 0.0
2018-Jun-28 07:00N 47°12' W 001°36'0 0.0
2018-Jun-28 06:30N 47°12' W 001°36'0 0.0
2018-Jun-28 05:54N 47°12' W 001°36'0 0.0
2018-Jun-28 05:27N 47°12' W 001°36'0 0.0
2018-Jun-28 05:00N 47°12' W 001°36'0 0.0
2018-Jun-28 04:27N 47°12' W 001°36'0 0.0
2018-Jun-28 04:00N 47°12' W 001°36'0 0.0
2018-Jun-28 03:27N 47°12' W 001°36'0 0.0
2018-Jun-28 03:00N 47°12' W 001°36'0 0.0
2018-Jun-28 02:24N 47°12' W 001°36'0 0.0
2018-Jun-28 01:57N 47°12' W 001°36'0 0.0
2018-Jun-28 01:30N 47°12' W 001°36'0 0.0
2018-Jun-28 01:00N 47°12' W 001°36'0 0.0
2018-Jun-28 00:30N 47°12' W 001°36'0 0.0
2018-Jun-27 23:57N 47°12' W 001°36'0 0.0
2018-Jun-27 23:30N 47°12' W 001°36'0 0.0
2018-Jun-27 23:00N 47°12' W 001°36'0 0.0
2018-Jun-27 22:30N 47°12' W 001°36'0 0.0
2018-Jun-27 22:00N 47°12' W 001°36'0 0.0
2018-Jun-27 21:30N 47°12' W 001°36'0 0.0
2018-Jun-27 21:00N 47°12' W 001°36'0 0.0
2018-Jun-27 20:30N 47°12' W 001°36'0 0.0
2018-Jun-27 20:00N 47°12' W 001°36'0 0.0
2018-Jun-27 19:30N 47°12' W 001°36'0 0.0
2018-Jun-27 19:00N 47°12' W 001°36'0 0.0
2018-Jun-27 18:27N 47°12' W 001°36'0 0.0
2018-Jun-27 17:57N 47°12' W 001°36'0 0.0
2018-Jun-27 17:30N 47°12' W 001°36'0 0.0
2018-Jun-27 17:00N 47°12' W 001°36'0 0.0
2018-Jun-27 16:30N 47°12' W 001°36'0 0.0
2018-Jun-27 16:00N 47°12' W 001°36'0 0.0
2018-Jun-27 15:27N 47°12' W 001°36'0 0.0
2018-Jun-27 15:00N 47°12' W 001°36'0 0.0
2018-Jun-27 14:30N 47°12' W 001°36'0 0.0
2018-Jun-27 14:00N 47°12' W 001°36'0 0.0
2018-Jun-27 13:30N 47°12' W 001°36'0 0.0
2018-Jun-27 13:00N 47°12' W 001°36'0 0.0
2018-Jun-27 12:30N 47°12' W 001°36'0 0.0
2018-Jun-27 09:03N 47°12' W 001°36'0 0.0
2018-Jun-27 08:48N 47°12' W 001°36'0 0.0
2018-Jun-27 08:30N 47°12' W 001°36'0 0.0
2018-Jun-27 08:00N 47°12' W 001°36'0 0.0
2018-Jun-27 07:30N 47°12' W 001°36'0 0.0
2018-Jun-27 07:00N 47°12' W 001°36'0 0.0
2018-Jun-27 06:30N 47°12' W 001°36'0 0.0
2018-Jun-27 06:00N 47°12' W 001°36'0 0.0
2018-Jun-27 05:30N 47°12' W 001°36'0 0.0
2018-Jun-27 04:57N 47°12' W 001°36'0 0.0
2018-Jun-27 04:30N 47°12' W 001°36'0 0.0
2018-Jun-27 04:00N 47°12' W 001°36'0 0.0
2018-Jun-27 03:30N 47°12' W 001°36'0 0.0
2018-Jun-27 03:00N 47°12' W 001°36'0 0.0
2018-Jun-27 02:30N 47°12' W 001°36'0 0.0
2018-Jun-27 01:57N 47°12' W 001°36'0 0.0
2018-Jun-27 01:30N 47°12' W 001°36'0 0.0
2018-Jun-27 00:57N 47°12' W 001°36'0 0.0
2018-Jun-27 00:30N 47°12' W 001°36'0 0.0
2018-Jun-27 00:00N 47°12' W 001°36'0 0.0
2018-Jun-26 23:27N 47°12' W 001°36'0 0.0
2018-Jun-26 23:00N 47°12' W 001°36'0 0.0
2018-Jun-26 22:30N 47°12' W 001°36'0 0.0
2018-Jun-26 22:00N 47°12' W 001°36'0 0.0
2018-Jun-26 21:30N 47°12' W 001°36'0 0.0
2018-Jun-26 21:00N 47°12' W 001°36'0 0.0
2018-Jun-26 20:27N 47°12' W 001°36'0 0.0
2018-Jun-26 19:57N 47°12' W 001°36'0 0.0
2018-Jun-26 19:24N 47°12' W 001°36'0 0.0
2018-Jun-26 19:00N 47°12' W 001°36'0 0.0
2018-Jun-26 18:27N 47°12' W 001°36'0 0.0
2018-Jun-26 17:57N 47°12' W 001°36'0 0.0
2018-Jun-26 17:30N 47°12' W 001°36'0 0.0
2018-Jun-26 16:30N 47°12' W 001°36'0 0.0
2018-Jun-26 16:00N 47°12' W 001°36'0 0.0
2018-Jun-26 15:30N 47°12' W 001°36'0 0.0
2018-Jun-26 15:01N 47°12' W 001°36'1 2.3
2018-Jun-26 14:30N 47°12' W 001°35'2 4.9
2018-Jun-26 14:00N 47°12' W 001°38'611.6
2018-Jun-26 13:30N 47°13' W 001°47'611.4
2018-Jun-26 13:01N 47°16' W 001°53'611.7
2018-Jun-26 12:30N 47°18' W 002°01'20 0.7
2018-Jun-25 06:29N 47°08' W 002°27'0 0.0
2018-Jun-25 05:47N 47°08' W 002°27'0 0.0
2018-Jun-25 05:11N 47°08' W 002°27'0 0.0
2018-Jun-25 04:26N 47°08' W 002°27'0 0.0
2018-Jun-25 03:47N 47°08' W 002°27'0 0.0
2018-Jun-25 03:29N 47°08' W 002°27'0 0.1
2018-Jun-25 02:59N 47°08' W 002°26'0 0.0
2018-Jun-25 02:29N 47°08' W 002°26'  

Dump ship's entire track history